Time;durP1;ratioP1;P1;durP2;ratioP2;P2;SDS_P1;SDS_P2;PMS_P1;PMS_P2;Temp;Humidity;BMP_temperature;BMP_pressure;BME280_temperature;BME280_humidity;BME280_pressure;Samples;Min_cycle;Max_cycle;Signal;HPM_P1;HPM_P2
2021/11/24 00:01:05;;;;;;;8.07;1.80;;;;;;;14.94;62.75;101641.91;5076133;28;20185;-73
2021/11/24 00:03:30;;;;;;;8.43;1.67;;;;;;;15.36;61.88;101646.56;5093144;28;20206;-73
2021/11/24 00:05:56;;;;;;;6.10;1.23;;;;;;;15.22;62.54;101651.88;5076203;28;20174;-73
2021/11/24 00:08:21;;;;;;;4.73;1.37;;;;;;;15.33;61.89;101655.69;5093718;28;20601;-73
2021/11/24 00:10:46;;;;;;;9.83;1.70;;;;;;;15.26;61.96;101651.63;5075723;28;20198;-73
2021/11/24 00:13:12;;;;;;;9.23;1.43;;;;;;;15.17;62.01;101652.16;5075354;28;20200;-73
2021/11/24 00:15:37;;;;;;;10.70;1.40;;;;;;;15.26;61.91;101656.13;5075743;28;20261;-73
2021/11/24 00:18:02;;;;;;;7.40;1.27;;;;;;;15.07;62.64;101658.16;5058593;28;20232;-73
2021/11/24 00:20:28;;;;;;;5.30;1.50;;;;;;;15.24;62.22;101639.22;5093710;28;20201;-72
2021/11/24 00:22:53;;;;;;;8.03;1.77;;;;;;;15.37;61.64;101647.41;5093350;28;20202;-73
2021/11/24 00:25:19;;;;;;;4.77;1.50;;;;;;;15.27;62.35;101655.19;5075817;28;20170;-73
2021/11/24 00:27:44;;;;;;;3.87;1.37;;;;;;;15.14;62.08;101663.09;5058537;28;20267;-73
2021/11/24 00:30:10;;;;;;;5.83;1.47;;;;;;;15.16;62.02;101649.56;5093180;28;20189;-73
2021/11/24 00:32:35;;;;;;;7.37;1.53;;;;;;;15.46;61.47;101653.09;5093455;28;20662;-73
2021/11/24 00:35:02;;;;;;;7.27;1.50;;;;;;;15.20;61.98;101660.03;5075101;28;20256;-72
2021/11/24 00:37:29;;;;;;;4.90;1.53;;;;;;;15.15;61.75;101643.31;5075299;28;20253;-73
2021/11/24 00:39:54;;;;;;;3.83;1.50;;;;;;;15.43;61.34;101652.44;5075687;28;20186;-73
2021/11/24 00:42:20;;;;;;;5.93;1.73;;;;;;;15.75;60.42;101653.19;5074918;28;20202;-73
2021/11/24 00:44:45;;;;;;;6.07;1.60;;;;;;;16.09;59.84;101651.97;5093079;28;20220;-74
2021/11/24 00:47:11;;;;;;;8.30;1.90;;;;;;;16.07;59.87;101660.13;5074995;28;20178;-74
2021/11/24 00:49:39;;;;;;;5.43;1.57;;;;;;;15.83;60.55;101649.06;5092878;28;20690;-73
2021/11/24 00:52:05;;;;;;;13.33;1.60;;;;;;;15.98;59.82;101651.75;5074976;28;20200;-73
2021/11/24 00:54:30;;;;;;;7.97;1.60;;;;;;;15.93;59.73;101646.66;5074891;28;20178;-72
2021/11/24 00:56:55;;;;;;;3.57;1.10;;;;;;;15.69;60.18;101634.75;5074838;28;20185;-73
2021/11/24 00:59:20;;;;;;;5.30;1.27;;;;;;;15.76;60.02;101639.66;5093393;28;20224;-73
2021/11/24 01:01:46;;;;;;;10.83;2.13;;;;;;;15.66;60.12;101638.50;5075020;28;20206;-73
2021/11/24 01:04:11;;;;;;;10.07;1.73;;;;;;;15.68;59.70;101639.25;5093099;28;20155;-72
2021/11/24 01:06:36;;;;;;;6.60;1.07;;;;;;;15.70;60.28;101649.94;5074817;28;20174;-73
2021/11/24 01:09:03;;;;;;;6.93;1.83;;;;;;;15.68;60.30;101652.72;5074676;28;20197;-72
2021/11/24 01:11:28;;;;;;;7.73;1.40;;;;;;;15.57;59.89;101645.25;5074557;28;20183;-72
2021/11/24 01:13:53;;;;;;;6.67;1.57;;;;;;;15.92;59.43;101645.78;5093013;28;20578;-73
2021/11/24 01:16:18;;;;;;;4.83;1.67;;;;;;;15.98;58.86;101638.28;5096815;28;20174;-74
2021/11/24 01:18:44;;;;;;;4.07;1.70;;;;;;;15.71;59.59;101636.38;5096716;28;20224;-73
2021/11/24 01:21:09;;;;;;;3.97;1.70;;;;;;;15.62;59.79;101629.75;5096714;28;20577;-72
2021/11/24 01:23:35;;;;;;;5.07;1.67;;;;;;;15.83;59.73;101630.22;5061852;28;20707;-73
2021/11/24 01:26:00;;;;;;;6.97;1.57;;;;;;;15.92;59.15;101636.84;5097888;28;20181;-72
2021/11/24 01:28:26;;;;;;;7.97;1.57;;;;;;;15.92;59.18;101640.41;5097213;28;20190;-73
2021/11/24 01:30:51;;;;;;;7.37;1.83;;;;;;;15.85;59.34;101632.81;5078681;28;20309;-74
2021/11/24 01:33:16;;;;;;;6.07;1.57;;;;;;;15.81;59.11;101626.75;5078339;28;20190;-74
2021/11/24 01:35:42;;;;;;;6.87;1.80;;;;;;;15.46;60.01;101625.34;5096654;28;20599;-72
2021/11/24 01:38:07;;;;;;;4.67;1.50;;;;;;;15.76;59.70;101626.19;5079167;28;20531;-73
2021/11/24 01:40:32;;;;;;;8.47;1.97;;;;;;;15.69;59.62;101615.91;5096967;28;20254;-74
2021/11/24 01:42:58;;;;;;;5.20;1.70;;;;;;;15.83;59.61;101634.75;5078319;28;20190;-73
2021/11/24 01:45:23;;;;;;;4.43;1.33;;;;;;;15.65;59.93;101636.75;5078482;28;20181;-73
2021/11/24 01:47:50;;;;;;;5.27;1.57;;;;;;;15.99;59.44;101638.22;5078512;28;20186;-72
2021/11/24 01:50:16;;;;;;;6.60;1.77;;;;;;;15.99;59.22;101632.84;5078661;28;20197;-72
2021/11/24 01:52:42;;;;;;;6.80;1.43;;;;;;;16.17;58.30;101625.41;5078283;28;20555;-73
2021/11/24 01:55:09;;;;;;;5.10;1.33;;;;;;;15.88;59.13;101628.09;5078061;28;20173;-73
2021/11/24 01:57:35;;;;;;;5.40;1.30;;;;;;;16.35;58.14;101632.28;5077939;28;20209;-73
2021/11/24 02:00:00;;;;;;;7.07;1.87;;;;;;;15.62;59.74;101634.25;5077947;28;20643;-73
2021/11/24 02:02:26;;;;;;;10.77;1.73;;;;;;;15.86;59.41;101635.41;5078106;28;20202;-73
2021/11/24 02:04:52;;;;;;;7.43;1.70;;;;;;;15.77;59.60;101641.38;5077836;28;20259;-73
2021/11/24 02:07:18;;;;;;;9.83;1.83;;;;;;;15.80;59.75;101625.03;5077994;28;20249;-73
2021/11/24 02:09:45;;;;;;;5.93;1.53;;;;;;;15.74;59.77;101632.63;5095833;28;20212;-72
2021/11/24 02:12:12;;;;;;;6.87;1.60;;;;;;;15.76;59.75;101634.25;5095816;28;20190;-73
2021/11/24 02:14:38;;;;;;;5.47;1.40;;;;;;;15.78;59.74;101616.19;5078043;28;20177;-73
2021/11/24 02:17:04;;;;;;;8.70;1.80;;;;;;;15.47;60.25;101621.69;5077682;28;20166;-73
2021/11/24 02:19:32;;;;;;;6.47;1.70;;;;;;;16.68;58.27;101623.00;5077983;28;20203;-73
2021/11/24 02:21:57;;;;;;;9.43;2.00;;;;;;;16.10;59.00;101616.00;5077565;28;20201;-72
2021/11/24 02:24:28;;;;;;;7.07;1.60;;;;;;;16.26;58.92;101614.03;5096068;28;20170;-73
2021/11/24 02:26:53;;;;;;;8.37;1.70;;;;;;;15.94;59.33;101610.69;5060425;28;20197;-76
2021/11/24 02:29:18;;;;;;;4.57;1.93;;;;;;;15.77;59.37;101609.06;5095903;28;20194;-73
2021/11/24 02:31:48;;;;;;;9.30;2.03;;;;;;;15.82;59.74;101606.97;5095979;28;20194;-73
2021/11/24 02:34:13;;;;;;;10.30;2.17;;;;;;;15.68;59.89;101598.88;5078685;28;20178;-73
2021/11/24 02:36:38;;;;;;;13.00;2.40;;;;;;;15.66;59.97;101597.25;5078386;28;20699;-73
2021/11/24 02:39:04;;;;;;;5.70;1.67;;;;;;;15.54;60.37;101597.00;5096937;28;20302;-73
2021/11/24 02:41:29;;;;;;;7.50;1.70;;;;;;;15.90;59.86;101601.94;5099785;28;20675;-72
2021/11/24 02:43:55;;;;;;;7.23;1.90;;;;;;;15.67;60.24;101585.53;5081290;28;20714;-71
2021/11/24 02:46:23;;;;;;;10.20;2.20;;;;;;;15.79;60.41;101587.44;5078995;28;20170;-72
2021/11/24 02:48:48;;;;;;;7.50;2.20;;;;;;;15.15;60.96;101577.91;5074852;28;20194;-72
2021/11/24 02:51:14;;;;;;;8.40;2.33;;;;;;;15.65;60.25;101582.94;5098152;28;20177;-72
2021/11/24 02:53:39;;;;;;;5.77;1.90;;;;;;;15.72;59.84;101584.28;5095382;28;20174;-72
2021/11/24 02:56:04;;;;;;;7.77;1.77;;;;;;;16.10;59.28;101589.06;5076881;28;20166;-72
2021/11/24 02:58:30;;;;;;;6.83;2.33;;;;;;;15.69;59.68;101591.69;5077062;28;20263;-71
2021/11/24 03:00:58;;;;;;;9.87;2.30;;;;;;;15.73;60.23;101591.41;5076971;28;20182;-72
2021/11/24 03:03:24;;;;;;;5.13;2.20;;;;;;;15.66;60.16;101589.19;5052383;22;20232;-67
2021/11/24 03:05:49;;;;;;;8.67;2.33;;;;;;;15.54;59.72;101580.84;5012121;28;20535;-66
2021/11/24 03:08:14;;;;;;;12.47;2.40;;;;;;;15.75;60.01;101588.59;5010637;28;20225;-66
2021/11/24 03:10:40;;;;;;;7.73;2.33;;;;;;;15.30;61.68;101577.88;5010698;28;20173;-67
2021/11/24 03:13:06;;;;;;;9.90;2.57;;;;;;;15.20;61.50;101570.44;4994098;28;20197;-66
2021/11/24 03:15:31;;;;;;;4.40;2.13;;;;;;;15.91;60.11;101578.59;5011280;28;20527;-66
2021/11/24 03:17:57;;;;;;;5.63;2.30;;;;;;;15.68;60.19;101568.44;5012048;28;20177;-67
2021/11/24 03:20:25;;;;;;;6.30;2.60;;;;;;;15.91;59.39;101574.06;5011975;28;20182;-66
2021/11/24 03:22:51;;;;;;;8.23;2.50;;;;;;;15.90;60.00;101572.34;5011710;28;20193;-67
2021/11/24 03:25:17;;;;;;;6.47;2.50;;;;;;;15.67;60.30;101562.19;5010418;28;20177;-67
2021/11/24 03:27:43;;;;;;;9.43;2.67;;;;;;;15.66;60.51;101563.13;5012179;28;20177;-67
2021/11/24 03:30:13;;;;;;;4.73;2.40;;;;;;;15.75;60.79;101564.38;5010483;28;20201;-68
2021/11/24 03:32:39;;;;;;;7.13;2.50;;;;;;;15.72;60.69;101568.13;5011928;28;20192;-66
2021/11/24 03:35:05;;;;;;;6.90;2.67;;;;;;;15.80;60.33;101557.75;5011597;28;20224;-66
2021/11/24 03:37:30;;;;;;;7.63;2.77;;;;;;;15.81;60.25;101559.47;5009979;28;20260;-65
2021/11/24 03:39:56;;;;;;;5.60;2.40;;;;;;;15.51;60.65;101562.22;5010565;28;20251;-65
2021/11/24 03:42:21;;;;;;;5.90;2.70;;;;;;;15.39;61.03;101565.69;5010208;28;20243;-65
2021/11/24 03:44:47;;;;;;;6.70;2.80;;;;;;;15.52;60.62;101566.63;5011911;28;20177;-66
2021/11/24 03:47:12;;;;;;;7.03;2.90;;;;;;;15.52;60.91;101560.38;4994017;28;20180;-66
2021/11/24 03:49:38;;;;;;;6.60;2.57;;;;;;;15.67;60.77;101569.38;5011717;28;20245;-66
2021/11/24 03:52:04;;;;;;;8.47;3.43;;;;;;;15.61;60.90;101565.25;5023797;28;20203;-66
2021/11/24 03:54:30;;;;;;;7.40;3.17;;;;;;;15.68;60.68;101566.59;5012468;28;20306;-66
2021/11/24 03:56:55;;;;;;;8.97;3.60;;;;;;;15.51;60.46;101553.28;5011555;28;20187;-67
2021/11/24 03:59:21;;;;;;;9.30;4.13;;;;;;;15.59;60.76;101551.00;5011343;28;20173;-65
2021/11/24 04:01:46;;;;;;;14.97;4.33;;;;;;;15.36;61.16;101546.16;5011434;28;20569;-67
2021/11/24 04:04:11;;;;;;;7.60;4.13;;;;;;;15.37;61.51;101559.53;5011842;28;20172;-66
2021/11/24 04:06:37;;;;;;;9.87;4.50;;;;;;;15.55;61.55;101557.50;5011442;28;20543;-66
2021/11/24 04:09:03;;;;;;;11.20;4.80;;;;;;;15.50;61.55;101556.94;5011057;28;20200;-66
2021/11/24 04:11:28;;;;;;;8.63;4.80;;;;;;;15.52;61.80;101549.63;5011630;28;20211;-66
2021/11/24 04:13:53;;;;;;;10.07;4.50;;;;;;;15.36;62.33;101554.25;5010962;28;20208;-65
2021/11/24 04:16:19;;;;;;;11.87;4.90;;;;;;;15.72;61.48;101551.13;5009738;28;20617;-66
2021/11/24 04:18:44;;;;;;;14.20;6.00;;;;;;;15.71;61.63;101546.69;5009761;28;20183;-66
2021/11/24 04:21:09;;;;;;;8.67;5.13;;;;;;;15.44;61.39;101546.56;5010880;28;20169;-65
2021/11/24 04:23:35;;;;;;;11.10;5.03;;;;;;;15.47;61.21;101533.78;5009519;28;20591;-66
2021/11/24 04:26:00;;;;;;;8.83;5.73;;;;;;;15.45;61.84;101543.78;5010921;28;20197;-66
2021/11/24 04:28:25;;;;;;;9.60;5.70;;;;;;;15.72;61.41;101543.06;5009442;28;20228;-67
2021/11/24 04:30:51;;;;;;;12.20;6.43;;;;;;;15.68;61.48;101546.91;5010744;28;20180;-66
2021/11/24 04:33:16;;;;;;;10.83;5.97;;;;;;;15.49;61.71;101550.69;5009768;28;20681;-66
2021/11/24 04:35:42;;;;;;;11.30;6.13;;;;;;;15.75;61.51;101546.41;5010675;28;20535;-66
2021/11/24 04:38:08;;;;;;;9.17;5.67;;;;;;;15.46;61.71;101540.13;5009690;28;20199;-65
2021/11/24 04:40:33;;;;;;;11.00;5.77;;;;;;;14.85;63.25;101541.16;5010738;28;20201;-65
2021/11/24 04:43:01;;;;;;;11.67;5.93;;;;;;;15.50;61.67;101530.03;5010545;28;20193;-66
2021/11/24 04:45:27;;;;;;;12.33;6.37;;;;;;;15.30;62.41;101534.84;5010026;28;20230;-66
2021/11/24 04:47:52;;;;;;;13.37;6.90;;;;;;;15.06;62.49;101522.88;5011314;28;20250;-66
2021/11/24 04:50:18;;;;;;;15.77;6.20;;;;;;;15.07;62.85;101523.75;5010753;28;20173;-66
2021/11/24 04:52:44;;;;;;;10.33;6.67;;;;;;;15.25;62.38;101522.63;5011682;28;20203;-66
2021/11/24 04:55:10;;;;;;;14.37;7.60;;;;;;;15.19;62.16;101520.28;5010982;28;20202;-66
2021/11/24 04:57:35;;;;;;;13.60;6.63;;;;;;;15.79;61.18;101537.16;5009375;28;20176;-66
2021/11/24 05:00:06;;;;;;;11.33;6.20;;;;;;;15.68;61.64;101539.69;5010304;28;20546;-66
2021/11/24 05:02:31;;;;;;;12.33;5.50;;;;;;;15.60;61.31;101531.22;5010392;28;20208;-66
2021/11/24 05:04:56;;;;;;;8.87;6.23;;;;;;;15.41;61.57;101526.09;5010552;28;20637;-66
2021/11/24 05:07:21;;;;;;;9.90;5.97;;;;;;;15.54;61.65;101526.19;5010163;28;20181;-65
2021/11/24 05:09:47;;;;;;;14.37;6.33;;;;;;;15.87;60.71;101528.59;5010810;28;20208;-66
2021/11/24 05:12:12;;;;;;;8.17;5.40;;;;;;;15.38;61.69;101520.03;5010941;28;20612;-67
2021/11/24 05:14:38;;;;;;;20.27;6.03;;;;;;;15.74;61.08;101535.75;5010198;28;20191;-67
2021/11/24 05:17:05;;;;;;;15.77;6.23;;;;;;;16.05;60.30;101527.44;5011189;28;20173;-65
2021/11/24 05:19:34;;;;;;;12.33;6.37;;;;;;;15.58;61.14;101535.81;5011083;28;20183;-66
2021/11/24 05:21:59;;;;;;;14.33;9.00;;;;;;;15.63;61.78;101528.34;5010725;28;20189;-66
2021/11/24 05:24:25;;;;;;;13.10;5.80;;;;;;;15.27;61.99;101529.66;5010460;28;20550;-65
2021/11/24 05:26:50;;;;;;;12.10;5.90;;;;;;;15.24;62.53;101520.91;5010224;28;20211;-65
2021/11/24 05:29:16;;;;;;;8.47;5.10;;;;;;;14.90;63.21;101508.66;5009290;28;20208;-67
2021/11/24 05:31:42;;;;;;;10.63;5.50;;;;;;;15.39;61.85;101522.63;5010490;28;20168;-67
2021/11/24 05:34:07;;;;;;;7.77;5.73;;;;;;;15.19;62.07;101505.03;5010417;28;20180;-66
2021/11/24 05:36:34;;;;;;;13.00;5.67;;;;;;;15.30;62.00;101512.47;5010223;28;20276;-66
2021/11/24 05:39:00;;;;;;;9.87;5.20;;;;;;;15.12;62.34;101508.19;5010469;28;20218;-66
2021/11/24 05:41:25;;;;;;;8.00;5.00;;;;;;;15.13;62.22;101524.22;4992656;28;20185;-66
2021/11/24 05:43:53;;;;;;;10.70;5.60;;;;;;;14.84;62.52;101520.59;5010485;28;20197;-66
2021/11/24 05:49:02;;;;;;;13.43;6.80;;;;;;;15.07;62.82;101534.50;5010032;28;20288;-66
2021/11/24 05:51:28;;;;;;;13.10;6.63;;;;;;;14.89;63.07;101523.03;5009713;28;20208;-67
2021/11/24 05:53:53;;;;;;;12.77;6.67;;;;;;;14.73;63.94;101528.44;5009820;28;20189;-66
2021/11/24 05:56:18;;;;;;;12.17;7.00;;;;;;;14.42;64.75;101537.41;5010082;28;20177;-66
2021/11/24 05:58:43;;;;;;;14.13;7.80;;;;;;;14.68;63.45;101526.03;5010191;28;20221;-66
2021/11/24 06:01:09;;;;;;;13.47;7.40;;;;;;;14.98;63.35;101535.94;5009923;28;20539;-66
2021/11/24 06:03:35;;;;;;;15.27;7.80;;;;;;;14.86;63.32;101515.13;5013147;28;20215;-66
2021/11/24 06:06:00;;;;;;;13.17;7.30;;;;;;;14.70;63.84;101513.38;5013648;28;20230;-66
2021/11/24 06:08:25;;;;;;;14.90;9.17;;;;;;;14.79;63.80;101532.59;5011845;28;20208;-65
2021/11/24 06:10:51;;;;;;;17.40;8.83;;;;;;;15.30;62.61;101516.00;5013340;28;20524;-66
2021/11/24 06:13:16;;;;;;;15.03;8.87;;;;;;;14.95;63.31;101522.66;5013599;28;20185;-67
2021/11/24 06:15:41;;;;;;;15.33;8.93;;;;;;;15.09;63.40;101530.75;5016568;28;20175;-67
2021/11/24 06:18:08;;;;;;;16.17;8.77;;;;;;;15.07;63.38;101532.66;5013787;28;20165;-66
2021/11/24 06:20:34;;;;;;;14.30;8.77;;;;;;;15.80;61.51;101533.53;5012110;28;20177;-68
2021/11/24 06:22:59;;;;;;;14.57;9.30;;;;;;;15.85;61.18;101542.16;5013828;28;20196;-70
2021/11/24 06:25:24;;;;;;;19.20;8.73;;;;;;;15.37;62.23;101538.00;5014309;28;20177;-66
2021/11/24 06:27:50;;;;;;;15.60;8.30;;;;;;;15.38;62.24;101536.19;5013700;28;20184;-66
2021/11/24 06:30:17;;;;;;;13.53;8.93;;;;;;;15.19;62.93;101522.97;5013885;28;20177;-67
2021/11/24 06:32:43;;;;;;;16.57;8.93;;;;;;;15.80;61.88;101524.59;4996308;28;20200;-67
2021/11/24 06:35:09;;;;;;;18.20;8.30;;;;;;;15.68;61.28;101518.16;5012448;28;20534;-66
2021/11/24 06:37:35;;;;;;;21.33;9.77;;;;;;;15.27;62.48;101524.28;5013702;28;20173;-67
2021/11/24 06:40:02;;;;;;;21.47;9.37;;;;;;;15.86;61.67;101530.44;5013643;28;20166;-67
2021/11/24 06:42:27;;;;;;;15.07;8.70;;;;;;;15.52;62.25;101539.72;5012587;28;20218;-68
2021/11/24 06:44:52;;;;;;;12.03;8.03;;;;;;;16.14;60.21;101536.75;5012921;28;20177;-69
2021/11/24 06:47:18;;;;;;;13.93;8.00;;;;;;;16.12;60.64;101536.84;5012166;28;20188;-68
2021/11/24 06:49:45;;;;;;;9.73;6.97;;;;;;;15.30;61.91;101544.72;5011323;28;20208;-70
2021/11/24 06:52:10;;;;;;;12.17;7.40;;;;;;;16.10;60.60;101545.97;5012358;28;20193;-69
2021/11/24 06:54:36;;;;;;;13.33;7.10;;;;;;;15.94;60.74;101541.56;5013887;28;20638;-69
2021/11/24 06:57:01;;;;;;;14.23;7.00;;;;;;;15.77;61.21;101546.31;5012753;28;20172;-69
2021/11/24 06:59:26;;;;;;;10.20;6.40;;;;;;;16.18;60.00;101547.22;5012871;28;20195;-69
2021/11/24 07:01:51;;;;;;;11.40;6.80;;;;;;;16.12;59.86;101536.84;5011266;28;20189;-68
2021/11/24 07:04:17;;;;;;;16.43;6.60;;;;;;;15.70;60.97;101550.34;5012736;28;20211;-68
2021/11/24 07:06:42;;;;;;;10.50;7.00;;;;;;;16.01;60.67;101546.59;5011215;28;20185;-68
2021/11/24 07:09:10;;;;;;;8.93;6.33;;;;;;;15.84;61.17;101545.81;5011156;28;20197;-69
2021/11/24 07:11:36;;;;;;;10.80;6.00;;;;;;;16.22;60.60;101539.78;5012275;28;20262;-69
2021/11/24 07:14:01;;;;;;;10.93;6.00;;;;;;;16.02;61.69;101551.00;5012316;28;20173;-69
2021/11/24 07:16:26;;;;;;;9.50;6.53;;;;;;;16.16;61.09;101543.75;5011168;28;20173;-69
2021/11/24 07:18:52;;;;;;;9.03;6.13;;;;;;;16.02;61.40;101543.78;5011088;28;20226;-68
2021/11/24 07:21:17;;;;;;;10.97;5.47;;;;;;;15.92;61.32;101553.41;5010587;28;20218;-68
2021/11/24 07:23:43;;;;;;;12.17;7.40;;;;;;;16.61;60.03;101547.06;5011854;28;20249;-69
2021/11/24 07:26:08;;;;;;;8.97;6.23;;;;;;;16.24;60.04;101554.88;5012168;28;20177;-69
2021/11/24 07:28:33;;;;;;;7.80;5.67;;;;;;;16.32;60.36;101550.81;5012065;28;20205;-69
2021/11/24 07:30:59;;;;;;;13.50;5.67;;;;;;;16.67;60.37;101545.81;5010890;28;20572;-69
2021/11/24 07:33:24;;;;;;;9.73;5.50;;;;;;;15.72;61.17;101548.44;4994746;28;20233;-70
2021/11/24 07:35:49;;;;;;;10.40;5.27;;;;;;;15.87;61.16;101553.69;5011156;28;20226;-69
2021/11/24 07:38:15;;;;;;;9.83;5.43;;;;;;;15.71;61.36;101557.47;5013613;28;20161;-69
2021/11/24 07:40:40;;;;;;;14.07;5.43;;;;;;;15.85;61.30;101558.31;5011927;28;20191;-70
2021/11/24 07:43:06;;;;;;;6.00;4.50;;;;;;;15.93;61.35;101550.59;5012044;28;20275;-70
2021/11/24 07:45:31;;;;;;;9.23;4.50;;;;;;;15.84;61.49;101551.19;5011949;28;20173;-70
2021/11/24 07:47:57;;;;;;;8.63;4.23;;;;;;;15.78;60.93;101551.59;5011933;28;20175;-69
2021/11/24 07:50:22;;;;;;;8.27;4.30;;;;;;;16.03;60.79;101561.69;5011618;28;20170;-70
2021/11/24 07:52:47;;;;;;;8.03;5.10;;;;;;;15.84;61.10;101556.59;5010161;28;20257;-69
2021/11/24 07:55:13;;;;;;;7.87;4.63;;;;;;;15.79;61.50;101542.56;5011273;28;20234;-68
2021/11/24 07:57:38;;;;;;;9.03;5.00;;;;;;;15.69;61.81;101540.56;4994868;28;20272;-68
2021/11/24 08:00:05;;;;;;;12.07;5.63;;;;;;;15.99;61.64;101557.47;5011539;28;20177;-69
2021/11/24 08:02:30;;;;;;;8.63;4.50;;;;;;;15.53;61.78;101554.91;5011110;28;20296;-68
2021/11/24 08:04:55;;;;;;;6.60;3.83;;;;;;;15.99;61.47;101554.75;5011086;28;20515;-69
2021/11/24 08:07:21;;;;;;;5.83;3.33;;;;;;;15.65;61.05;101533.63;5011474;28;20247;-69
2021/11/24 08:09:46;;;;;;;7.93;3.97;;;;;;;15.62;61.39;101542.78;5011119;28;20197;-69
2021/11/24 08:12:11;;;;;;;7.07;3.60;;;;;;;15.81;61.06;101540.63;5010141;28;20224;-68
2021/11/24 08:14:37;;;;;;;4.67;2.90;;;;;;;15.69;61.33;101535.16;5011443;28;20181;-69
2021/11/24 08:17:04;;;;;;;6.97;3.13;;;;;;;15.53;61.17;101540.59;5011394;28;20208;-69
2021/11/24 08:19:29;;;;;;;5.33;3.17;;;;;;;15.45;61.55;101529.47;5012183;28;20172;-69
2021/11/24 08:21:54;;;;;;;4.20;3.00;;;;;;;15.71;60.97;101538.63;5011443;28;20705;-70
2021/11/24 08:24:21;;;;;;;4.40;2.70;;;;;;;15.46;61.15;101520.44;5011062;28;20177;-70
2021/11/24 08:26:47;;;;;;;3.60;2.50;;;;;;;15.98;59.96;101526.06;5009766;28;20546;-69
2021/11/24 08:29:12;;;;;;;3.40;2.40;;;;;;;16.21;59.53;101528.16;5010839;28;20197;-69
2021/11/24 08:31:41;;;;;;;3.80;2.43;;;;;;;16.61;59.14;101522.81;5010840;28;20180;-69
2021/11/24 08:34:08;;;;;;;2.63;1.83;;;;;;;16.26;59.20;101526.03;5011145;28;20181;-68
2021/11/24 08:36:33;;;;;;;4.70;2.80;;;;;;;15.95;59.38;101531.66;5011341;28;20177;-69
2021/11/24 08:38:59;;;;;;;6.20;2.47;;;;;;;16.26;58.76;101526.03;5010227;28;20453;-69
2021/11/24 08:41:24;;;;;;;2.93;2.00;;;;;;;16.02;59.23;101529.47;5011251;28;20205;-69
2021/11/24 08:43:50;;;;;;;7.90;2.37;;;;;;;16.77;57.87;101528.94;5010856;28;20188;-69
2021/11/24 08:46:15;;;;;;;2.87;1.90;;;;;;;15.92;60.17;101540.81;5015320;28;20238;-70
2021/11/24 08:48:40;;;;;;;3.07;1.70;;;;;;;16.67;58.43;101519.72;5013465;28;20201;-69
2021/11/24 08:51:06;;;;;;;4.90;1.67;;;;;;;16.63;58.18;101531.66;5011595;28;20193;-69
2021/11/24 08:53:31;;;;;;;2.30;1.60;;;;;;;16.61;58.01;101538.13;5011213;28;20192;-69
2021/11/24 08:55:57;;;;;;;1.90;1.70;;;;;;;16.12;58.75;101533.28;5011029;28;20656;-69
2021/11/24 08:58:22;;;;;;;2.90;1.17;;;;;;;16.23;58.58;101531.59;5010168;28;20193;-70
2021/11/24 09:00:47;;;;;;;5.43;1.37;;;;;;;16.00;59.20;101536.78;5010160;28;20177;-69
2021/11/24 09:03:13;;;;;;;3.07;1.20;;;;;;;16.34;57.63;101506.66;5065884;22;20265;-72
2021/11/24 09:05:39;;;;;;;4.10;1.37;;;;;;;16.62;57.51;101511.06;5055202;28;20517;-72
2021/11/24 09:08:04;;;;;;;4.80;1.63;;;;;;;16.78;57.12;101529.81;5055047;28;20295;-72
2021/11/24 09:10:31;;;;;;;1.33;1.17;;;;;;;15.99;58.17;101524.28;5054912;28;20182;-72
2021/11/24 09:12:56;;;;;;;1.17;0.80;;;;;;;16.37;58.10;101524.47;5055072;28;20672;-71
2021/11/24 09:15:22;;;;;;;2.17;0.90;;;;;;;16.12;58.42;101517.13;5038279;28;20180;-73
2021/11/24 09:17:47;;;;;;;1.57;1.03;;;;;;;15.60;58.97;101515.94;5055358;28;20188;-72
2021/11/24 09:20:12;;;;;;;1.33;0.80;;;;;;;16.25;57.91;101516.22;5055174;28;20177;-71
2021/11/24 09:22:41;;;;;;;2.63;1.20;;;;;;;16.54;56.84;101503.50;5055083;28;20190;-72
2021/11/24 09:25:08;;;;;;;3.10;1.60;;;;;;;16.60;57.10;101517.53;5055407;28;20177;-71
2021/11/24 09:27:47;;;;;;;1.67;1.37;;;;;;;15.61;59.05;101514.13;5055026;28;20198;-71
2021/11/24 09:30:12;;;;;;;3.60;1.20;;;;;;;15.67;59.17;101529.03;5054672;28;20159;-72
2021/11/24 09:32:38;;;;;;;1.40;1.30;;;;;;;16.09;58.03;101520.03;5055249;28;20198;-71
2021/11/24 09:35:03;;;;;;;2.43;1.50;;;;;;;15.66;58.78;101536.22;5054850;28;20199;-71
2021/11/24 09:37:29;;;;;;;2.00;1.20;;;;;;;16.43;56.92;101522.22;5074756;28;20175;-70
2021/11/24 09:39:54;;;;;;;1.57;1.23;;;;;;;16.75;56.59;101514.72;5058680;28;20177;-72
2021/11/24 09:42:20;;;;;;;1.83;1.10;;;;;;;16.62;56.77;101523.69;5058606;28;20177;-73
2021/11/24 09:44:47;;;;;;;3.03;1.10;;;;;;;16.36;56.78;101520.91;5058648;28;20552;-72
2021/11/24 09:47:14;;;;;;;1.57;1.23;;;;;;;16.90;55.89;101510.09;5041970;28;20326;-72
2021/11/24 09:49:41;;;;;;;3.23;1.67;;;;;;;16.48;56.82;101524.59;5058399;28;20568;-72
2021/11/24 09:52:07;;;;;;;2.30;1.20;;;;;;;16.99;55.98;101520.25;5058670;28;20178;-71
2021/11/24 09:54:32;;;;;;;2.47;1.77;;;;;;;16.68;56.68;101524.16;5075958;28;20243;-72
2021/11/24 09:56:58;;;;;;;3.30;1.50;;;;;;;16.35;56.61;101508.38;5058499;28;20651;-72
2021/11/24 09:59:23;;;;;;;2.13;1.40;;;;;;;16.64;56.91;101510.97;5058600;28;20180;-73
2021/11/24 10:01:48;;;;;;;2.50;1.60;;;;;;;16.48;56.59;101498.53;5077759;28;20582;-73
2021/11/24 10:04:14;;;;;;;4.20;1.90;;;;;;;16.76;55.44;101496.69;5058368;28;20528;-72
2021/11/24 10:06:40;;;;;;;2.03;1.73;;;;;;;17.09;55.56;101502.44;5058338;28;20228;-73
2021/11/24 10:09:09;;;;;;;4.03;1.70;;;;;;;17.27;55.11;101511.09;5076427;28;20193;-72
2021/11/24 10:11:34;;;;;;;2.53;1.50;;;;;;;17.03;55.27;101502.00;5041421;28;20182;-72
2021/11/24 10:14:01;;;;;;;2.47;1.40;;;;;;;17.24;54.98;101494.28;5057978;28;20240;-72
2021/11/24 10:16:30;;;;;;;3.70;1.50;;;;;;;17.13;55.15;101495.91;5076463;28;20567;-72
2021/11/24 10:18:57;;;;;;;1.37;1.17;;;;;;;17.80;54.35;101491.09;5058307;28;20196;-72
2021/11/24 10:21:23;;;;;;;1.90;1.40;;;;;;;17.94;53.77;101495.50;5057699;28;20220;-72
2021/11/24 10:23:49;;;;;;;4.03;1.87;;;;;;;17.43;54.74;101492.84;5075675;28;20192;-72
2021/11/24 10:26:19;;;;;;;4.97;1.80;;;;;;;17.38;54.32;101488.75;5075852;28;20179;-72
2021/11/24 10:28:59;;;;;;;3.30;1.60;;;;;;;17.09;55.15;101485.41;5075796;28;20217;-73
2021/11/24 10:31:41;;;;;;;5.97;1.80;;;;;;;17.01;54.98;101488.63;5058636;28;20241;-73
2021/11/24 10:34:16;;;;;;;1.80;1.40;;;;;;;17.03;55.14;101464.25;5066273;28;20256;-72
2021/11/24 10:36:51;;;;;;;1.30;1.20;;;;;;;18.07;53.26;101468.44;5076744;28;20169;-71
2021/11/24 10:39:17;;;;;;;2.67;1.33;;;;;;;16.79;55.22;101469.53;5058421;28;20716;-72
2021/11/24 10:41:42;;;;;;;2.00;1.07;;;;;;;17.02;54.61;101471.47;5058353;28;20186;-71
2021/11/24 10:44:08;;;;;;;6.13;1.00;;;;;;;17.09;54.23;101461.97;5075946;28;20195;-71
2021/11/24 10:46:35;;;;;;;1.10;1.00;;;;;;;16.82;54.27;101459.41;5076271;28;20181;-72
2021/11/24 10:49:03;;;;;;;3.33;1.00;;;;;;;16.83;54.43;101454.88;5057366;28;20194;-71
2021/11/24 10:51:31;;;;;;;2.10;1.00;;;;;;;17.92;52.63;101459.66;5075421;28;20530;-72
2021/11/24 10:54:12;;;;;;;0.83;0.67;;;;;;;17.77;52.34;101458.91;5058707;28;20196;-72
2021/11/24 10:57:09;;;;;;;1.70;0.77;;;;;;;17.57;52.48;101447.84;5042413;28;20208;-73
2021/11/24 10:59:37;;;;;;;1.57;0.83;;;;;;;17.69;51.98;101445.13;5075370;28;20569;-74
2021/11/24 11:02:22;;;;;;;1.53;0.70;;;;;;;17.78;52.10;101444.44;5057519;28;20177;-73
2021/11/24 11:04:57;;;;;;;1.93;1.20;;;;;;;17.49;52.95;101443.00;5075468;28;20533;-72
2021/11/24 11:07:22;;;;;;;1.97;1.03;;;;;;;16.82;53.93;101432.44;5056869;28;20245;-73
2021/11/24 11:09:47;;;;;;;3.20;1.17;;;;;;;16.77;53.59;101425.66;5056480;28;20204;-72
2021/11/24 11:12:13;;;;;;;1.53;1.37;;;;;;;17.37;53.25;101438.47;5057540;28;20281;-73
2021/11/24 11:14:39;;;;;;;2.10;1.57;;;;;;;17.28;53.96;101441.81;5075114;28;20639;-72
2021/11/24 11:17:05;;;;;;;2.50;1.63;;;;;;;17.09;54.94;101426.06;5074639;28;20205;-73
2021/11/24 11:19:41;;;;;;;2.93;2.30;;;;;;;17.14;54.70;101442.81;5074701;28;20695;-72